Time;durP1;ratioP1;P1;durP2;ratioP2;P2;SDS_P1;SDS_P2;PMS_P1;PMS_P2;Temp;Humidity;BMP_temperature;BMP_pressure;BME280_temperature;BME280_humidity;BME280_pressure;Samples;Min_cycle;Max_cycle;Signal;HPM_P1;HPM_P2
2022/10/10 00:01:17;;;;;;;4.77;3.73;;;11.60;99.90;;;;;;4972289;28;22173;-83
2022/10/10 00:03:45;;;;;;;6.27;4.23;;;11.70;99.90;;;;;;4978539;28;20769;-83
2022/10/10 00:06:13;;;;;;;8.10;3.53;;;11.60;99.90;;;;;;4990745;28;20276;-83
2022/10/10 00:08:41;;;;;;;4.67;3.40;;;11.50;99.90;;;;;;4990999;28;20208;-82
2022/10/10 00:11:09;;;;;;;6.00;4.10;;;11.50;1.00;;;;;;4990160;28;20684;-82
2022/10/10 00:13:36;;;;;;;6.73;3.73;;;11.50;1.00;;;;;;4989611;28;20230;-82
2022/10/10 00:16:03;;;;;;;7.17;3.43;;;11.50;99.90;;;;;;4986221;28;20225;-82
2022/10/10 00:18:31;;;;;;;8.43;3.70;;;11.50;99.90;;;;;;4992640;28;20340;-82
2022/10/10 00:20:58;;;;;;;5.90;4.00;;;11.40;1.00;;;;;;4991834;28;20670;-83
2022/10/10 00:23:25;;;;;;;7.50;4.10;;;11.40;1.00;;;;;;4990191;28;20206;-82
2022/10/10 00:25:52;;;;;;;5.53;4.03;;;11.30;1.00;;;;;;4988784;28;20658;-83
2022/10/10 00:28:20;;;;;;;6.53;3.93;;;11.30;1.00;;;;;;4982271;28;20475;-83
2022/10/10 00:30:47;;;;;;;6.57;4.40;;;11.30;1.00;;;;;;4993449;28;20210;-83
2022/10/10 00:33:14;;;;;;;6.27;4.03;;;11.20;1.00;;;;;;4994592;28;20213;-82
2022/10/10 00:35:41;;;;;;;5.60;4.00;;;11.10;1.00;;;;;;4993771;28;20241;-83
2022/10/10 00:38:09;;;;;;;4.93;4.00;;;11.10;1.00;;;;;;4993329;28;21060;-82
2022/10/10 00:40:44;;;;;;;5.43;3.77;;;11.20;1.00;;;;;;4994017;28;20716;-83
2022/10/10 00:43:12;;;;;;;7.23;5.20;;;11.20;1.00;;;;;;4986941;28;20292;-83
2022/10/10 00:45:41;;;;;;;5.13;4.00;;;11.10;1.00;;;;;;4979035;28;20206;-83
2022/10/10 00:48:30;;;;;;;8.03;4.03;;;11.10;1.00;;;;;;4987801;28;20202;-83
2022/10/10 00:51:08;;;;;;;9.57;3.80;;;11.00;1.00;;;;;;4985092;28;20675;-83
2022/10/10 00:54:03;;;;;;;6.90;3.87;;;11.00;1.00;;;;;;4984625;28;20209;-83
2022/10/10 00:56:34;;;;;;;5.90;3.60;;;10.90;1.00;;;;;;4985356;28;20209;-82
2022/10/10 00:59:05;;;;;;;5.77;4.10;;;10.90;1.00;;;;;;4990424;28;20216;-83
2022/10/10 01:01:33;;;;;;;6.33;4.03;;;10.90;75.20;;;;;;4986810;28;20245;-83
2022/10/10 01:04:01;;;;;;;5.83;4.63;;;10.90;1.00;;;;;;4984103;28;20201;-83
2022/10/10 01:06:29;;;;;;;5.30;4.27;;;10.90;12.20;;;;;;4987340;28;20303;-84
2022/10/10 01:08:56;;;;;;;6.23;3.90;;;10.90;1.00;;;;;;4979233;28;20212;-83
2022/10/10 01:11:25;;;;;;;6.53;4.10;;;10.80;19.50;;;;;;4991064;28;20212;-83
2022/10/10 01:14:10;;;;;;;6.20;4.33;;;10.80;99.90;;;;;;4993412;28;20549;-83
2022/10/10 01:17:08;;;;;;;7.80;4.20;;;10.80;99.90;;;;;;4972219;28;20215;-83
2022/10/10 01:20:01;;;;;;;7.07;4.43;;;10.70;99.90;;;;;;4991954;28;20233;-85
2022/10/10 01:22:52;;;;;;;5.00;3.73;;;10.70;99.90;;;;;;4992275;28;20724;-83
2022/10/10 01:25:31;;;;;;;4.73;3.90;;;10.70;99.90;;;;;;4992860;28;20215;-83
2022/10/10 01:28:01;;;;;;;6.00;3.83;;;10.60;99.90;;;;;;4976852;28;20202;-83
2022/10/10 01:30:29;;;;;;;8.07;4.53;;;10.70;99.90;;;;;;4987995;28;20198;-84
2022/10/10 01:33:16;;;;;;;6.00;4.40;;;10.70;99.90;;;;;;4987570;28;20217;-84
2022/10/10 01:36:07;;;;;;;6.20;4.27;;;10.70;99.90;;;;;;4993167;28;20217;-84
2022/10/10 01:38:53;;;;;;;5.10;4.60;;;10.60;99.90;;;;;;4993091;28;20252;-84
2022/10/10 01:41:25;;;;;;;8.27;5.40;;;10.60;99.90;;;;;;4978580;28;20324;-83
2022/10/10 01:43:54;;;;;;;6.70;4.57;;;10.60;99.90;;;;;;4977427;28;20208;-83
2022/10/10 01:46:21;;;;;;;8.20;4.53;;;10.60;99.90;;;;;;4986839;28;20201;-83
2022/10/10 01:48:52;;;;;;;7.47;4.30;;;10.60;99.90;;;;;;4983309;28;20201;-83
2022/10/10 01:51:43;;;;;;;5.70;4.50;;;10.60;99.90;;;;;;4996225;28;20298;-82
2022/10/10 01:54:33;;;;;;;6.47;4.47;;;10.60;99.90;;;;;;4986581;28;20303;-83
2022/10/10 01:57:19;;;;;;;10.27;4.97;;;10.50;99.90;;;;;;4998648;28;20198;-83
2022/10/10 02:00:01;;;;;;;8.33;4.73;;;10.50;1.00;;;;;;4984724;28;20255;-83
2022/10/10 02:02:42;;;;;;;5.80;4.00;;;10.50;1.00;;;;;;4999496;28;20293;-83
2022/10/10 02:05:31;;;;;;;7.50;4.27;;;10.50;1.00;;;;;;4983063;28;20230;-84
2022/10/10 02:08:20;;;;;;;6.90;4.37;;;10.40;1.00;;;;;;4983468;28;20229;-83
2022/10/10 02:10:54;;;;;;;4.80;3.90;;;10.50;1.00;;;;;;5000373;28;20213;-83
2022/10/10 02:13:28;;;;;;;6.13;4.40;;;10.40;1.00;;;;;;4992461;28;20202;-83
2022/10/10 02:15:58;;;;;;;5.80;3.97;;;10.50;1.00;;;;;;4997692;28;20219;-83
2022/10/10 02:18:28;;;;;;;6.20;4.03;;;10.40;1.00;;;;;;5002553;28;20216;-83
2022/10/10 02:20:55;;;;;;;7.70;4.30;;;10.30;1.00;;;;;;4983565;28;20208;-85
2022/10/10 02:23:22;;;;;;;5.50;4.20;;;10.30;1.00;;;;;;5003186;28;20211;-82
2022/10/10 02:25:55;;;;;;;8.20;4.70;;;10.30;1.00;;;;;;4985788;28;20211;-83
2022/10/10 02:28:45;;;;;;;5.43;4.00;;;10.30;1.00;;;;;;4987386;28;20228;-83
2022/10/10 02:31:18;;;;;;;5.33;4.20;;;10.40;1.00;;;;;;4986252;28;20208;-83
2022/10/10 02:33:55;;;;;;;5.40;4.47;;;10.30;1.00;;;;;;4980653;28;20806;-84
2022/10/10 02:36:23;;;;;;;7.77;4.40;;;10.30;1.00;;;;;;4984599;28;20706;-82
2022/10/10 02:38:52;;;;;;;7.60;4.83;;;10.30;1.00;;;;;;4985306;28;20592;-81
2022/10/10 02:41:20;;;;;;;5.00;4.33;;;10.30;1.00;;;;;;4989208;28;20480;-83
2022/10/10 02:43:49;;;;;;;4.50;3.83;;;10.20;99.90;;;;;;4988009;28;20214;-85
2022/10/10 02:46:16;;;;;;;5.93;4.30;;;10.20;99.90;;;;;;4993895;28;20305;-83
2022/10/10 02:48:44;;;;;;;9.03;4.27;;;10.20;99.90;;;;;;4989973;28;20211;-84
2022/10/10 02:51:14;;;;;;;5.97;4.33;;;10.10;1.00;;;;;;4990765;28;20278;-83
2022/10/10 02:53:41;;;;;;;6.63;4.07;;;10.20;99.90;;;;;;4988653;28;20204;-84
2022/10/10 02:56:08;;;;;;;6.93;4.17;;;10.20;58.70;;;;;;5006782;28;20300;-84
2022/10/10 02:58:35;;;;;;;6.33;4.63;;;10.30;99.90;;;;;;4990348;28;20205;-83
2022/10/10 03:01:02;;;;;;;5.83;4.13;;;10.20;99.90;;;;;;4987938;28;20313;-84
2022/10/10 03:03:29;;;;;;;6.67;4.50;;;10.20;99.90;;;;;;4975719;28;20244;-83
2022/10/10 03:05:56;;;;;;;4.57;3.97;;;10.30;99.90;;;;;;5005242;28;20701;-83
2022/10/10 03:08:22;;;;;;;4.23;3.83;;;10.30;93.10;;;;;;4991292;28;20260;-82
2022/10/10 03:11:00;;;;;;;5.80;3.67;;;10.20;99.90;;;;;;4988148;28;20209;-83
2022/10/10 03:13:29;;;;;;;5.47;4.00;;;10.30;99.90;;;;;;4988727;28;20292;-83
2022/10/10 03:15:56;;;;;;;5.30;3.87;;;10.30;99.90;;;;;;4997741;28;20213;-82
2022/10/10 03:18:23;;;;;;;7.03;3.47;;;10.30;99.90;;;;;;4990114;28;20200;-83
2022/10/10 03:20:54;;;;;;;6.47;3.67;;;10.40;97.20;;;;;;4986322;28;20194;-83
2022/10/10 03:23:24;;;;;;;7.53;4.30;;;10.40;29.80;;;;;;4988296;28;20219;-82
2022/10/10 03:25:51;;;;;;;6.40;3.70;;;10.30;99.90;;;;;;4999498;28;20246;-83
2022/10/10 03:28:18;;;;;;;6.00;3.73;;;10.30;1.00;;;;;;4987989;28;20218;-82
2022/10/10 03:30:46;;;;;;;7.67;3.97;;;10.40;99.90;;;;;;4991937;28;20491;-82
2022/10/10 03:33:13;;;;;;;6.53;3.53;;;10.40;99.90;;;;;;4990322;28;20202;-82
2022/10/10 03:35:40;;;;;;;7.40;4.20;;;10.30;99.90;;;;;;4987383;28;20213;-83
2022/10/10 03:38:07;;;;;;;6.13;3.60;;;10.40;99.90;;;;;;4990005;28;20950;-82
2022/10/10 03:40:39;;;;;;;5.73;3.80;;;10.30;99.90;;;;;;4976335;28;20348;-82
2022/10/10 03:43:08;;;;;;;8.83;3.60;;;10.40;99.90;;;;;;4984473;28;20191;-82
2022/10/10 03:45:35;;;;;;;6.20;3.97;;;10.40;99.90;;;;;;4986040;28;20284;-84
2022/10/10 03:48:04;;;;;;;6.43;3.93;;;10.30;99.90;;;;;;4987982;28;20225;-83
2022/10/10 03:50:31;;;;;;;8.33;3.93;;;10.20;99.90;;;;;;4986210;28;20581;-83
2022/10/10 03:52:57;;;;;;;3.73;3.10;;;10.20;1.00;;;;;;4987674;28;20226;-83
2022/10/10 03:55:25;;;;;;;4.77;3.30;;;10.30;1.00;;;;;;4987400;28;20221;-84
2022/10/10 03:57:52;;;;;;;6.57;3.40;;;10.30;99.90;;;;;;4989144;28;20229;-84
2022/10/10 04:00:21;;;;;;;4.17;3.43;;;10.20;99.90;;;;;;4987816;28;20586;-84
2022/10/10 04:02:48;;;;;;;4.90;3.40;;;10.20;1.00;;;;;;4984312;28;20202;-83
2022/10/10 04:05:15;;;;;;;5.37;4.10;;;10.20;1.00;;;;;;4989867;28;20661;-85
2022/10/10 04:07:43;;;;;;;5.83;3.60;;;10.20;1.00;;;;;;4973949;28;20209;-84
2022/10/10 04:10:10;;;;;;;6.20;3.60;;;10.10;1.00;;;;;;4972610;28;20209;-84
2022/10/10 04:12:37;;;;;;;9.63;3.87;;;10.10;1.00;;;;;;4990168;28;20629;-84
2022/10/10 04:15:04;;;;;;;6.47;3.93;;;10.10;1.00;;;;;;5003926;28;20666;-83
2022/10/10 04:17:31;;;;;;;5.03;3.53;;;10.10;1.00;;;;;;4959899;28;20558;-83
2022/10/10 04:19:58;;;;;;;6.37;3.47;;;10.10;1.00;;;;;;4982593;28;20199;-84
2022/10/10 04:22:25;;;;;;;7.23;3.37;;;10.00;1.00;;;;;;4986471;28;20202;-84
2022/10/10 04:24:52;;;;;;;5.13;3.30;;;10.00;1.00;;;;;;4988999;28;20197;-84
2022/10/10 04:27:19;;;;;;;3.83;3.37;;;10.00;1.00;;;;;;4953389;28;20584;-84
2022/10/10 04:29:47;;;;;;;5.60;3.70;;;10.10;1.00;;;;;;5000268;28;20233;-84
2022/10/10 04:32:13;;;;;;;5.77;3.60;;;10.00;1.00;;;;;;4990098;28;20221;-83
2022/10/10 04:34:40;;;;;;;4.40;3.27;;;10.10;59.10;;;;;;4988666;28;20720;-84
2022/10/10 04:37:07;;;;;;;7.97;3.90;;;10.10;99.90;;;;;;4984710;28;20223;-84
2022/10/10 04:39:34;;;;;;;7.63;3.87;;;9.90;99.90;;;;;;4990513;28;20688;-83
2022/10/10 04:42:00;;;;;;;5.33;3.80;;;10.00;1.00;;;;;;4997087;28;21231;-84
2022/10/10 04:44:27;;;;;;;6.13;3.67;;;10.10;1.00;;;;;;4992026;28;20653;-83
2022/10/10 04:46:54;;;;;;;8.17;3.93;;;10.00;99.90;;;;;;4992333;28;20263;-83
2022/10/10 04:49:22;;;;;;;9.70;4.23;;;10.00;99.90;;;;;;4993309;28;20216;-84
2022/10/10 04:51:48;;;;;;;5.43;3.60;;;9.90;99.90;;;;;;4988921;28;20242;-82
2022/10/10 04:54:15;;;;;;;5.87;4.10;;;10.00;1.00;;;;;;4986780;28;20731;-82
2022/10/10 04:56:42;;;;;;;5.83;3.87;;;10.10;91.00;;;;;;4987864;28;20289;-83
2022/10/10 04:59:09;;;;;;;4.43;3.90;;;10.00;1.00;;;;;;4985935;28;20624;-83
2022/10/10 05:01:36;;;;;;;6.07;4.10;;;10.10;92.10;;;;;;4983131;28;20196;-83
2022/10/10 05:04:03;;;;;;;5.47;3.73;;;9.90;99.90;;;;;;4987550;28;20277;-83
2022/10/10 05:06:31;;;;;;;6.80;3.77;;;10.00;1.00;;;;;;4985166;28;20207;-83
2022/10/10 05:08:58;;;;;;;7.00;4.33;;;10.00;1.00;;;;;;5000932;28;20204;-84
2022/10/10 05:11:24;;;;;;;6.37;4.10;;;10.00;1.00;;;;;;4984152;28;22039;-83
2022/10/10 05:13:51;;;;;;;6.47;4.67;;;10.00;99.90;;;;;;4996331;28;20233;-83
2022/10/10 05:16:18;;;;;;;7.67;4.03;;;10.00;99.90;;;;;;4984793;28;20557;-83
2022/10/10 05:18:45;;;;;;;9.37;4.73;;;9.90;1.00;;;;;;4988210;28;20205;-83
2022/10/10 05:21:12;;;;;;;8.93;4.17;;;9.90;1.00;;;;;;4985375;28;20650;-83
2022/10/10 05:23:40;;;;;;;6.13;4.20;;;9.90;1.00;;;;;;4984798;28;20638;-85
2022/10/10 05:26:09;;;;;;;4.73;4.03;;;10.00;99.90;;;;;;5000128;28;20257;-88
2022/10/10 05:28:36;;;;;;;7.67;4.13;;;9.90;1.00;;;;;;4986800;28;20204;-81
2022/10/10 05:31:04;;;;;;;7.30;4.40;;;10.00;99.90;;;;;;4627316;28;9999979;-81
2022/10/10 05:33:32;;;;;;;6.90;5.13;;;9.90;1.00;;;;;;4999796;28;20212;-81
2022/10/10 05:36:05;;;;;;;6.97;4.10;;;10.00;1.00;;;;;;4989063;28;20322;-81
2022/10/10 05:38:32;;;;;;;7.17;4.00;;;10.00;1.00;;;;;;4982310;28;20250;-81
2022/10/10 05:40:59;;;;;;;6.37;4.00;;;10.00;1.00;;;;;;4980565;28;20616;-80
2022/10/10 05:43:26;;;;;;;6.90;4.30;;;10.00;1.00;;;;;;4985089;28;20206;-81
2022/10/10 05:45:53;;;;;;;6.67;3.93;;;10.00;1.00;;;;;;4973355;28;20215;-80
2022/10/10 05:48:21;;;;;;;5.00;4.10;;;10.00;1.00;;;;;;4986745;28;20204;-80
2022/10/10 05:50:50;;;;;;;6.33;4.70;;;10.10;99.90;;;;;;5003387;28;20208;-81
2022/10/10 05:53:17;;;;;;;7.40;4.10;;;10.10;99.90;;;;;;4987881;28;20208;-81
2022/10/10 05:55:44;;;;;;;7.50;4.40;;;10.00;99.90;;;;;;4987143;28;20234;-82
2022/10/10 05:58:14;;;;;;;5.57;4.20;;;9.80;1.00;;;;;;5004530;28;20203;-79
2022/10/10 06:00:42;;;;;;;7.50;4.33;;;9.90;1.00;;;;;;5001600;28;20210;-81
2022/10/10 06:03:12;;;;;;;8.50;4.17;;;10.00;99.90;;;;;;4994905;28;20203;-80
2022/10/10 06:05:40;;;;;;;6.97;4.23;;;10.10;1.00;;;;;;4984244;28;20229;-80
2022/10/10 06:08:07;;;;;;;6.67;4.10;;;9.90;99.90;;;;;;4985615;28;20207;-84
2022/10/10 06:10:41;;;;;;;9.13;4.17;;;9.90;99.90;;;;;;4986863;28;20203;-81
2022/10/10 06:13:09;;;;;;;4.90;3.93;;;10.00;1.00;;;;;;4988632;28;20220;-83
2022/10/10 06:15:36;;;;;;;5.87;3.80;;;9.90;1.00;;;;;;4973653;28;20237;-82
2022/10/10 06:18:04;;;;;;;6.10;4.13;;;9.90;99.90;;;;;;4988631;28;20238;-84
2022/10/10 06:20:34;;;;;;;5.60;4.00;;;10.00;1.00;;;;;;4987117;28;20741;-84
2022/10/10 06:23:02;;;;;;;6.73;4.40;;;10.10;1.00;;;;;;4988583;28;20235;-83
2022/10/10 06:25:31;;;;;;;7.03;4.00;;;10.00;99.90;;;;;;4986140;28;20203;-82
2022/10/10 06:28:08;;;;;;;6.60;4.43;;;10.10;1.00;;;;;;5003295;28;20200;-82
2022/10/10 06:30:42;;;;;;;5.70;3.80;;;10.00;1.00;;;;;;4988067;28;20207;-81
2022/10/10 06:33:10;;;;;;;6.40;4.50;;;9.90;99.90;;;;;;4983091;28;20653;-81
2022/10/10 06:35:42;;;;;;;6.10;4.47;;;9.90;98.30;;;;;;4974599;28;20241;-80
2022/10/10 06:38:09;;;;;;;7.13;4.10;;;9.90;1.00;;;;;;4988813;28;20231;-80
2022/10/10 06:40:36;;;;;;;7.30;4.23;;;9.90;99.90;;;;;;4987765;28;20234;-80
2022/10/10 06:43:07;;;;;;;11.17;4.87;;;9.90;1.00;;;;;;4983247;28;20677;-81
2022/10/10 06:45:35;;;;;;;6.37;4.73;;;10.00;99.90;;;;;;4985813;28;20223;-80
2022/10/10 06:48:03;;;;;;;6.43;4.20;;;9.90;99.90;;;;;;5007792;28;20200;-86
2022/10/10 06:50:30;;;;;;;5.97;4.43;;;9.90;1.00;;;;;;4994918;28;20305;-83
2022/10/10 06:52:56;;;;;;;6.17;4.63;;;9.80;1.00;;;;;;4990448;28;20316;-85
2022/10/10 06:55:23;;;;;;;7.97;4.13;;;9.90;1.00;;;;;;4992530;28;20198;-88
2022/10/10 06:57:50;;;;;;;6.63;4.73;;;10.00;1.00;;;;;;4993168;28;20552;-84
2022/10/10 07:00:17;;;;;;;7.17;4.70;;;10.00;1.00;;;;;;4976747;28;20211;-86
2022/10/10 07:02:44;;;;;;;8.73;4.70;;;9.90;1.00;;;;;;4988508;28;20217;-86
2022/10/10 07:05:12;;;;;;;8.97;4.90;;;10.10;1.00;;;;;;5002765;28;20197;-80
2022/10/10 07:07:39;;;;;;;5.03;4.33;;;10.10;1.00;;;;;;4990768;28;20203;-80
2022/10/10 07:10:09;;;;;;;7.03;4.60;;;10.20;1.00;;;;;;4988860;28;20204;-79
2022/10/10 07:12:37;;;;;;;7.77;5.53;;;10.30;1.00;;;;;;4968838;28;20198;-79
2022/10/10 07:15:10;;;;;;;8.67;5.40;;;10.50;1.00;;;;;;4984535;28;20565;-79
2022/10/10 07:17:37;;;;;;;9.97;5.27;;;10.50;99.90;;;;;;4979782;28;20314;-79
2022/10/10 07:20:05;;;;;;;7.17;5.27;;;10.60;99.90;;;;;;4990093;28;20660;-79
2022/10/10 07:22:32;;;;;;;9.37;5.60;;;10.70;1.00;;;;;;4987590;28;20203;-79
2022/10/10 07:24:59;;;;;;;7.47;4.77;;;10.80;99.90;;;;;;4987823;28;20287;-80
2022/10/10 07:27:26;;;;;;;5.87;4.73;;;11.00;1.00;;;;;;4988667;28;20202;-79
2022/10/10 07:29:53;;;;;;;12.03;5.23;;;11.10;73.40;;;;;;4992183;28;20224;-79
2022/10/10 07:32:19;;;;;;;8.23;5.33;;;11.10;99.90;;;;;;4988529;28;20236;-80
2022/10/10 07:34:46;;;;;;;9.77;5.47;;;11.20;99.90;;;;;;4990576;28;20679;-79
2022/10/10 07:37:13;;;;;;;9.20;4.80;;;11.40;1.00;;;;;;4990470;28;20221;-79
2022/10/10 07:39:40;;;;;;;5.13;4.57;;;11.50;1.00;;;;;;4983647;28;20224;-78
2022/10/10 07:42:07;;;;;;;6.77;4.67;;;11.50;99.90;;;;;;4990584;28;22314;-79
2022/10/10 07:44:33;;;;;;;10.10;5.30;;;11.70;99.90;;;;;;4988743;28;20208;-80
2022/10/10 07:47:00;;;;;;;7.23;4.83;;;11.80;1.00;;;;;;4992506;28;20211;-79
2022/10/10 07:49:27;;;;;;;9.67;5.13;;;11.90;1.00;;;;;;4988983;28;20203;-79
2022/10/10 07:51:54;;;;;;;6.50;4.63;;;12.00;1.00;;;;;;4990627;28;20198;-80
2022/10/10 07:54:26;;;;;;;5.07;4.20;;;12.00;99.90;;;;;;4990658;28;20213;-84
2022/10/10 07:56:54;;;;;;;7.93;5.00;;;12.00;13.90;;;;;;4989248;28;20213;-82
2022/10/10 07:59:21;;;;;;;6.20;4.97;;;12.10;99.90;;;;;;4984301;28;20581;-80
2022/10/10 08:01:48;;;;;;;7.83;4.60;;;12.10;12.60;;;;;;4990851;28;20296;-83
2022/10/10 08:04:16;;;;;;;8.47;4.83;;;12.30;1.00;;;;;;4990849;28;20218;-83
2022/10/10 08:06:43;;;;;;;8.43;4.30;;;12.30;99.90;;;;;;4991420;28;20229;-81
2022/10/10 08:09:10;;;;;;;5.13;4.27;;;12.40;1.00;;;;;;5009047;28;20203;-80
2022/10/10 08:11:37;;;;;;;6.43;4.37;;;12.40;1.00;;;;;;5010911;28;20635;-81
2022/10/10 08:14:04;;;;;;;10.37;4.83;;;12.20;1.00;;;;;;4994542;28;20594;-82
2022/10/10 08:16:31;;;;;;;6.73;4.00;;;12.20;1.00;;;;;;5000829;28;20217;-81
2022/10/10 08:18:58;;;;;;;5.70;4.10;;;12.20;99.90;;;;;;4996288;28;20205;-80
2022/10/10 08:21:24;;;;;;;9.07;4.90;;;12.30;99.90;;;;;;4974119;28;20198;-82
2022/10/10 08:23:51;;;;;;;7.47;4.63;;;12.30;1.00;;;;;;4999928;28;20202;-83
2022/10/10 08:26:18;;;;;;;7.97;4.63;;;12.50;1.00;;;;;;4976701;28;20209;-81
2022/10/10 08:28:47;;;;;;;8.13;4.70;;;12.90;1.00;;;;;;4999850;28;20210;-82
2022/10/10 08:31:17;;;;;;;8.53;4.40;;;12.90;1.00;;;;;;4977145;28;20297;-81
2022/10/10 08:33:45;;;;;;;7.93;4.43;;;13.20;1.00;;;;;;4994587;28;20650;-81
2022/10/10 08:36:14;;;;;;;24.13;6.00;;;13.50;99.90;;;;;;4975271;28;20249;-81
2022/10/10 08:38:42;;;;;;;6.77;4.33;;;13.90;99.90;;;;;;4990119;28;22162;-82
2022/10/10 08:41:42;;;;;;;6.73;4.43;;;14.00;1.00;;;;;;4970715;28;21586;-81
2022/10/10 08:44:22;;;;;;;7.30;4.53;;;14.40;1.00;;;;;;4991700;28;20694;-82
2022/10/10 08:47:15;;;;;;;9.90;4.53;;;14.50;1.00;;;;;;4993060;28;20205;-81
2022/10/10 08:50:04;;;;;;;4.87;4.10;;;14.10;99.90;;;;;;4989433;28;20205;-81
2022/10/10 08:52:54;;;;;;;7.17;4.87;;;14.00;1.00;;;;;;4993583;28;20199;-81
2022/10/10 08:55:42;;;;;;;8.57;4.40;;;13.90;1.00;;;;;;5008596;28;20221;-81
2022/10/10 08:58:26;;;;;;;9.93;4.63;;;14.10;1.00;;;;;;4992272;28;20265;-81
2022/10/10 09:01:11;;;;;;;8.07;4.00;;;14.30;1.00;;;;;;4992339;28;21045;-80
2022/10/10 09:03:45;;;;;;;5.33;3.50;;;14.20;1.00;;;;;;4991365;28;20208;-80
2022/10/10 09:06:16;;;;;;;7.20;4.20;;;14.20;1.00;;;;;;5005761;28;20285;-79
2022/10/10 09:09:07;;;;;;;7.37;4.13;;;14.20;1.00;;;;;;4989921;28;20233;-80
2022/10/10 09:11:52;;;;;;;8.23;4.37;;;14.20;1.00;;;;;;4989814;28;20195;-80
2022/10/10 09:15:00;;;;;;;8.80;3.83;;;14.50;1.00;;;;;;4991946;28;20202;-80
2022/10/10 09:17:37;;;;;;;5.80;3.93;;;14.70;1.00;;;;;;4987521;28;20214;-79
2022/10/10 09:20:29;;;;;;;8.07;3.83;;;14.80;99.90;;;;;;4992568;28;20202;-81
2022/10/10 09:23:20;;;;;;;6.57;4.27;;;14.80;99.90;;;;;;4989135;28;20211;-81
2022/10/10 09:26:15;;;;;;;11.50;4.53;;;14.80;1.00;;;;;;4989704;28;20215;-80
2022/10/10 09:29:05;;;;;;;7.90;3.70;;;14.90;1.00;;;;;;4992004;28;20292;-80
2022/10/10 09:31:44;;;;;;;8.37;3.57;;;14.80;57.70;;;;;;4982247;28;20302;-86
2022/10/10 09:34:19;;;;;;;5.90;3.60;;;14.90;83.90;;;;;;4989932;28;20195;-81
2022/10/10 09:36:47;;;;;;;7.80;3.87;;;15.10;99.90;;;;;;4986693;28;20663;-80
2022/10/10 09:39:37;;;;;;;8.83;4.47;;;15.10;1.00;;;;;;4985085;28;20230;-80
2022/10/10 09:42:13;;;;;;;9.73;4.30;;;15.00;28.20;;;;;;4983971;28;20318;-81
2022/10/10 09:44:41;;;;;;;8.03;4.47;;;15.00;1.00;;;;;;4991577;28;20209;-81
2022/10/10 09:47:14;;;;;;;6.57;4.57;;;14.90;1.00;;;;;;4990959;28;20212;-80
2022/10/10 09:49:42;;;;;;;8.67;4.17;;;14.90;99.90;;;;;;4995182;28;20217;-80
2022/10/10 09:52:30;;;;;;;7.90;4.47;;;14.90;99.90;;;;;;4991624;28;20238;-80
2022/10/10 09:55:21;;;;;;;7.60;4.53;;;15.00;99.90;;;;;;4990468;28;20224;-80
2022/10/10 09:57:50;;;;;;;6.97;4.27;;;14.90;99.90;;;;;;4989353;28;21546;-79
2022/10/10 10:00:20;;;;;;;5.73;3.93;;;14.90;99.90;;;;;;4992030;28;20222;-79
2022/10/10 10:02:48;;;;;;;4.90;3.93;;;15.00;99.90;;;;;;4991056;28;20199;-80
2022/10/10 10:05:26;;;;;;;16.27;5.17;;;15.00;99.90;;;;;;4991817;28;20203;-80
2022/10/10 10:07:53;;;;;;;10.60;5.57;;;15.00;99.90;;;;;;4983746;28;20254;-79
2022/10/10 10:10:23;;;;;;;8.57;3.93;;;15.10;99.90;;;;;;4996706;28;20224;-79
2022/10/10 10:12:51;;;;;;;7.43;4.60;;;15.00;99.90;;;;;;4991213;28;20201;-79
2022/10/10 10:15:23;;;;;;;7.77;4.03;;;15.00;99.90;;;;;;4991494;28;20223;-79
2022/10/10 10:18:12;;;;;;;8.77;4.43;;;15.10;99.90;;;;;;4990962;28;20599;-79
2022/10/10 10:20:44;;;;;;;9.63;5.00;;;15.20;99.90;;;;;;4989982;28;20678;-79
2022/10/10 10:23:30;;;;;;;8.23;4.50;;;15.60;99.90;;;;;;4991383;28;20211;-79
2022/10/10 10:26:05;;;;;;;8.10;4.10;;;15.90;1.00;;;;;;4983036;28;20215;-80
2022/10/10 10:28:42;;;;;;;8.00;4.47;;;16.00;1.00;;;;;;4990813;28;20286;-79
2022/10/10 10:31:38;;;;;;;7.27;4.40;;;16.00;1.00;;;;;;4985074;28;20208;-79
2022/10/10 10:34:29;;;;;;;10.80;4.63;;;16.20;1.00;;;;;;4980559;28;20419;-80
2022/10/10 10:37:15;;;;;;;9.30;4.83;;;16.30;1.00;;;;;;4990890;28;20218;-79
2022/10/10 10:39:54;;;;;;;10.50;5.10;;;16.40;1.00;;;;;;4990664;28;20263;-80
2022/10/10 10:42:38;;;;;;;8.37;4.90;;;16.50;1.00;;;;;;4970791;28;20199;-79
2022/10/10 10:45:13;;;;;;;8.20;4.00;;;16.50;1.00;;;;;;4970728;28;20259;-80
2022/10/10 10:47:57;;;;;;;6.53;4.17;;;16.60;1.00;;;;;;4971827;28;20226;-80
2022/10/10 10:50:30;;;;;;;6.30;3.60;;;16.50;99.90;;;;;;4961450;28;20205;-80
2022/10/10 10:53:34;;;;;;;6.63;4.00;;;16.60;99.90;;;;;;4970823;28;20716;-80
2022/10/10 10:56:29;;;;;;;7.70;3.77;;;16.70;99.90;;;;;;4953059;28;20221;-80
2022/10/10 10:59:29;;;;;;;6.60;3.70;;;16.60;99.90;;;;;;4964719;28;20213;-79
2022/10/10 11:02:42;;;;;;;10.07;4.43;;;16.60;99.90;;;;;;4968487;28;20207;-80
2022/10/10 11:05:42;;;;;;;7.10;3.97;;;16.70;99.90;;;;;;4975232;28;20677;-79
2022/10/10 11:08:25;;;;;;;10.43;4.10;;;16.70;99.90;;;;;;4963804;28;20577;-80
2022/10/10 11:11:24;;;;;;;4.97;3.20;;;16.80;99.90;;;;;;4974530;28;20247;-80
2022/10/10 11:14:26;;;;;;;6.13;3.97;;;17.00;99.90;;;;;;4974977;28;20586;-80
2022/10/10 11:17:06;;;;;;;9.17;3.77;;;17.20;99.90;;;;;;5023397;28;20578;-80
2022/10/10 11:20:05;;;;;;;4.97;3.50;;;17.40;1.00;;;;;;5023012;28;20211;-80
2022/10/10 11:22:40;;;;;;;7.87;3.27;;;17.50;1.00;;;;;;5030789;28;20311;-80
2022/10/10 11:25:24;;;;;;;5.03;3.73;;;17.70;1.00;;;;;;5031619;28;20219;-80
2022/10/10 11:28:01;;;;;;;14.60;3.40;;;17.80;1.00;;;;;;5021245;28;20336;-81
2022/10/10 11:30:34;;;;;;;10.20;3.57;;;18.00;17.80;;;;;;5015323;28;20228;-79
2022/10/10 11:33:12;;;;;;;6.70;3.27;;;18.30;1.00;;;;;;5031644;28;20296;-81
2022/10/10 11:35:52;;;;;;;6.93;2.70;;;18.50;1.00;;;;;;5031199;28;20676;-79
2022/10/10 11:38:23;;;;;;;10.00;3.50;;;18.60;1.00;;;;;;5031064;28;20246;-80
2022/10/10 11:41:14;;;;;;;5.17;2.70;;;18.60;1.00;;;;;;4975683;28;1116853;-80
2022/10/10 11:43:46;;;;;;;6.50;2.83;;;18.80;1.00;;;;;;5019507;28;20729;-81
2022/10/10 11:46:38;;;;;;;8.40;3.13;;;19.00;1.00;;;;;;5015324;28;20319;-79
2022/10/10 11:49:10;;;;;;;6.00;3.40;;;18.60;1.00;;;;;;5012567;28;20209;-79
2022/10/10 11:51:59;;;;;;;6.70;2.83;;;18.80;1.00;;;;;;4986982;28;20225;-80
2022/10/10 11:55:09;;;;;;;8.17;3.03;;;18.90;1.00;;;;;;4975390;28;20210;-80
2022/10/10 11:57:53;;;;;;;8.97;3.30;;;19.20;1.00;;;;;;4974032;28;20607;-80
2022/10/10 12:00:20;;;;;;;8.00;3.73;;;19.40;1.00;;;;;;4974992;28;20238;-81
2022/10/10 12:02:47;;;;;;;6.80;3.90;;;19.70;1.00;;;;;;4978277;28;20221;-80
2022/10/10 12:05:21;;;;;;;7.97;3.30;;;19.90;1.00;;;;;;4965601;28;20264;-80
2022/10/10 12:08:33;;;;;;;6.53;3.40;;;19.80;1.00;;;;;;4974483;28;20710;-80
2022/10/10 12:11:04;;;;;;;10.00;4.13;;;19.60;1.00;;;;;;5005681;28;20251;-81
2022/10/10 12:14:07;;;;;;;7.87;3.47;;;19.20;1.00;;;;;;4975499;28;20214;-80
2022/10/10 12:16:36;;;;;;;5.90;3.33;;;18.90;1.00;;;;;;4973418;28;20724;-80
2022/10/10 12:19:21;;;;;;;6.33;3.50;;;18.80;1.00;;;;;;4973749;28;20312;-80
2022/10/10 12:22:01;;;;;;;10.47;3.63;;;18.50;93.80;;;;;;4963912;28;20571;-79
2022/10/10 12:24:52;;;;;;;6.93;3.20;;;18.30;99.90;;;;;;4964308;28;20292;-79
2022/10/10 12:27:40;;;;;;;8.47;3.40;;;18.30;99.90;;;;;;4960747;28;20588;-79
2022/10/10 12:30:07;;;;;;;10.67;4.13;;;18.30;1.00;;;;;;4973374;28;20208;-80
2022/10/10 12:32:40;;;;;;;9.87;4.13;;;18.20;99.90;;;;;;4968810;28;20216;-80
2022/10/10 12:35:36;;;;;;;9.77;3.90;;;17.90;1.00;;;;;;4969851;28;20219;-79
2022/10/10 12:38:19;;;;;;;9.30;3.77;;;17.80;1.00;;;;;;4977159;28;20236;-79
2022/10/10 12:41:04;;;;;;;5.43;3.10;;;17.80;1.00;;;;;;4968314;28;20262;-80
2022/10/10 12:43:41;;;;;;;8.17;3.53;;;17.80;1.00;;;;;;4967759;28;20307;-79
2022/10/10 12:46:29;;;;;;;6.80;3.43;;;17.80;1.00;;;;;;4973854;28;20685;-79
2022/10/10 12:49:18;;;;;;;8.37;4.10;;;17.70;1.00;;;;;;4965603;28;20204;-79
2022/10/10 12:52:20;;;;;;;7.83;3.70;;;17.70;1.00;;;;;;4970787;28;20203;-79
2022/10/10 12:54:48;;;;;;;9.17;3.60;;;17.80;1.00;;;;;;4994977;28;20259;-78
2022/10/10 12:57:46;;;;;;;6.20;3.47;;;17.70;1.00;;;;;;4973871;28;20213;-81
2022/10/10 13:00:22;;;;;;;13.03;3.90;;;17.60;1.00;;;;;;4966735;28;20206;-80
2022/10/10 13:02:54;;;;;;;10.20;3.63;;;17.60;99.90;;;;;;4977236;28;20662;-79
2022/10/10 13:05:27;;;;;;;9.40;4.20;;;17.60;99.90;;;;;;4969916;28;20211;-79
2022/10/10 13:07:59;;;;;;;9.43;3.73;;;17.60;99.90;;;;;;4970016;28;20208;-79
2022/10/10 13:10:29;;;;;;;6.37;3.60;;;17.60;99.90;;;;;;4973972;28;20220;-80
2022/10/10 13:13:01;;;;;;;7.47;3.43;;;17.40;99.90;;;;;;4972793;28;20585;-80
2022/10/10 13:15:30;;;;;;;6.87;3.90;;;17.30;1.00;;;;;;4963929;28;20215;-81
2022/10/10 13:17:57;;;;;;;10.23;3.87;;;17.20;1.00;;;;;;4955741;28;20568;-80
2022/10/10 13:20:38;;;;;;;6.23;3.57;;;17.10;1.00;;;;;;4971645;28;20215;-81
2022/10/10 13:23:10;;;;;;;5.90;3.40;;;17.10;1.00;;;;;;4984215;28;20231;-81
2022/10/10 13:25:39;;;;;;;9.63;3.57;;;17.00;1.00;;;;;;4969608;28;20209;-80
2022/10/10 13:28:17;;;;;;;4.73;3.63;;;17.00;1.00;;;;;;4972359;28;20216;-79